Time;durP1;ratioP1;P1;durP2;ratioP2;P2;SDS_P1;SDS_P2;PMS_P1;PMS_P2;Temp;Humidity;BMP_temperature;BMP_pressure;BME280_temperature;BME280_humidity;BME280_pressure;Samples;Min_cycle;Max_cycle;Signal;HPM_P1;HPM_P2
2022/07/05 00:02:19;;;;;;;0.25;0.25;;;18.30;99.90;;;;;;4990542;28;20091;-68
2022/07/05 00:04:47;;;;;;;0.77;0.50;;;18.20;99.90;;;;;;4990714;28;20163;-67
2022/07/05 00:07:20;;;;;;;1.95;0.65;;;18.20;99.90;;;;;;4987025;28;20120;-65
2022/07/05 00:09:52;;;;;;;2.75;0.73;;;18.20;99.90;;;;;;4990473;28;20149;-67
2022/07/05 00:12:22;;;;;;;1.42;0.55;;;18.10;99.90;;;;;;4988681;28;20128;-71
2022/07/05 00:14:49;;;;;;;2.23;0.40;;;18.10;99.90;;;;;;4989416;28;20069;-73
2022/07/05 00:17:16;;;;;;;3.88;0.60;;;18.00;99.90;;;;;;4987671;28;20156;-66
2022/07/05 00:19:43;;;;;;;0.95;0.40;;;18.00;99.90;;;;;;4989974;28;20052;-70
2022/07/05 00:22:11;;;;;;;0.90;0.30;;;17.90;99.90;;;;;;4989729;28;20054;-71
2022/07/05 00:24:38;;;;;;;1.27;0.50;;;17.90;99.90;;;;;;4990341;28;20555;-70
2022/07/05 00:27:05;;;;;;;1.50;0.45;;;17.90;99.90;;;;;;4986027;28;20056;-73
2022/07/05 00:29:32;;;;;;;2.47;0.70;;;17.80;99.90;;;;;;4989192;28;20141;-70
2022/07/05 00:31:59;;;;;;;1.17;0.68;;;17.80;99.90;;;;;;4988966;28;20047;-70
2022/07/05 00:34:26;;;;;;;0.80;0.32;;;17.70;99.90;;;;;;4989335;28;20490;-72
2022/07/05 00:36:53;;;;;;;1.15;0.55;;;17.70;99.90;;;;;;4989872;28;21014;-68
2022/07/05 00:39:20;;;;;;;2.38;1.00;;;17.70;99.90;;;;;;4985508;28;20064;-67
2022/07/05 00:41:47;;;;;;;0.88;0.55;;;17.70;99.90;;;;;;4987340;28;20201;-71
2022/07/05 00:44:14;;;;;;;2.15;0.43;;;17.60;99.90;;;;;;4988814;28;20046;-70
2022/07/05 00:46:43;;;;;;;2.25;0.70;;;17.60;99.90;;;;;;4989017;28;20136;-68
2022/07/05 00:49:10;;;;;;;2.60;0.70;;;17.50;99.90;;;;;;4986790;28;20061;-72
2022/07/05 00:51:39;;;;;;;2.10;0.73;;;17.50;99.90;;;;;;4989519;28;20483;-71
2022/07/05 00:54:28;;;;;;;2.08;1.67;;;17.50;99.90;;;;;;4989304;28;20192;-72
2022/07/05 00:56:55;;;;;;;4.03;1.48;;;17.40;99.90;;;;;;4987930;28;21406;-66
2022/07/05 00:59:26;;;;;;;0.98;0.77;;;17.40;99.90;;;;;;4987259;28;20057;-69
2022/07/05 01:01:53;;;;;;;1.65;0.63;;;17.40;99.90;;;;;;4988215;28;20556;-71
2022/07/05 01:04:20;;;;;;;6.13;1.77;;;17.40;99.90;;;;;;4988459;28;20096;-68
2022/07/05 01:06:48;;;;;;;1.48;1.00;;;17.30;99.90;;;;;;4988296;28;20116;-69
2022/07/05 01:09:18;;;;;;;0.80;0.80;;;17.30;99.90;;;;;;4987176;28;20100;-66
2022/07/05 01:11:48;;;;;;;2.95;0.93;;;17.30;99.90;;;;;;4987795;28;20108;-69
2022/07/05 01:14:20;;;;;;;1.05;0.73;;;17.20;99.90;;;;;;4988644;28;20128;-72
2022/07/05 01:16:49;;;;;;;2.08;1.02;;;17.20;99.90;;;;;;4988738;28;20046;-67
2022/07/05 01:19:17;;;;;;;1.58;0.85;;;17.20;99.90;;;;;;4986688;28;20132;-69
2022/07/05 01:21:46;;;;;;;4.10;1.60;;;17.10;99.90;;;;;;4986335;28;20081;-73
2022/07/05 01:24:15;;;;;;;1.60;0.88;;;17.10;99.90;;;;;;4989168;28;20563;-69
2022/07/05 01:26:45;;;;;;;1.38;0.80;;;17.10;99.90;;;;;;4986571;28;20440;-74
2022/07/05 01:29:12;;;;;;;2.85;1.05;;;17.10;99.90;;;;;;4987411;28;20070;-67
2022/07/05 01:31:40;;;;;;;2.05;0.90;;;17.10;99.90;;;;;;4986507;28;20085;-71
2022/07/05 01:34:08;;;;;;;4.78;1.15;;;17.10;99.90;;;;;;4989063;28;20054;-70
2022/07/05 01:36:35;;;;;;;1.02;0.60;;;17.10;99.90;;;;;;4988540;28;20076;-69
2022/07/05 01:39:06;;;;;;;2.58;0.73;;;17.10;99.90;;;;;;4988287;28;20073;-67
2022/07/05 01:41:33;;;;;;;4.50;0.75;;;17.10;99.90;;;;;;4986907;28;20069;-72
2022/07/05 01:44:00;;;;;;;1.27;0.70;;;17.10;99.90;;;;;;4989098;28;20518;-70
2022/07/05 01:46:32;;;;;;;0.45;0.43;;;17.10;99.90;;;;;;5005452;28;20084;-68
2022/07/05 01:49:05;;;;;;;0.80;0.80;;;17.10;99.90;;;;;;4989560;28;20125;-73
2022/07/05 01:51:41;;;;;;;1.48;0.43;;;17.10;99.90;;;;;;4987406;28;20436;-71
2022/07/05 01:54:09;;;;;;;1.73;1.10;;;17.10;99.90;;;;;;4986859;28;20050;-70
2022/07/05 01:56:38;;;;;;;1.38;0.85;;;17.10;99.90;;;;;;5003813;28;20139;-70
2022/07/05 01:59:06;;;;;;;0.90;0.73;;;17.10;99.90;;;;;;4987046;28;20057;-69
2022/07/05 02:01:38;;;;;;;1.63;0.90;;;17.10;99.90;;;;;;4989563;28;20053;-70
2022/07/05 02:04:09;;;;;;;2.28;1.98;;;17.10;99.90;;;;;;4987630;28;20384;-71
2022/07/05 02:06:37;;;;;;;3.10;1.38;;;17.10;99.90;;;;;;5002440;28;20964;-69
2022/07/05 02:09:07;;;;;;;2.83;1.00;;;17.10;99.90;;;;;;4992691;28;20058;-69
2022/07/05 02:11:35;;;;;;;3.28;1.17;;;17.10;99.90;;;;;;4975914;28;20153;-70
2022/07/05 02:14:03;;;;;;;2.65;1.30;;;17.10;99.90;;;;;;4986845;28;20047;-70
2022/07/05 02:16:34;;;;;;;3.97;1.27;;;17.10;99.90;;;;;;4986264;28;20103;-68
2022/07/05 02:19:01;;;;;;;1.25;1.17;;;17.10;99.90;;;;;;4987547;28;20076;-70
2022/07/05 02:21:32;;;;;;;1.15;0.98;;;17.10;99.90;;;;;;4985396;28;20054;-69
2022/07/05 02:24:01;;;;;;;3.28;1.10;;;17.00;99.90;;;;;;4984782;28;20385;-72
2022/07/05 02:26:31;;;;;;;2.70;1.58;;;17.00;99.90;;;;;;4985197;28;20078;-70
2022/07/05 02:29:00;;;;;;;1.45;1.15;;;17.00;99.90;;;;;;4985716;28;20058;-73
2022/07/05 02:31:27;;;;;;;3.70;1.05;;;17.00;99.90;;;;;;4985209;28;20053;-69
2022/07/05 02:33:55;;;;;;;1.48;0.90;;;17.00;99.90;;;;;;4990112;28;20054;-68
2022/07/05 02:36:24;;;;;;;2.25;2.05;;;16.90;99.90;;;;;;4985578;28;20046;-74
2022/07/05 02:38:51;;;;;;;1.48;0.80;;;16.90;99.90;;;;;;4988131;28;20053;-68
2022/07/05 02:41:18;;;;;;;2.72;1.00;;;16.90;99.90;;;;;;4973124;28;20057;-72
2022/07/05 02:43:47;;;;;;;3.70;1.03;;;16.90;99.90;;;;;;4976989;28;20057;-66
2022/07/05 02:46:17;;;;;;;4.85;1.27;;;16.90;99.90;;;;;;5004394;28;20393;-67
2022/07/05 02:48:44;;;;;;;1.92;1.25;;;16.90;99.90;;;;;;4986826;28;20054;-72
2022/07/05 02:51:12;;;;;;;1.00;0.80;;;16.80;99.90;;;;;;4983858;28;20050;-71
2022/07/05 02:53:39;;;;;;;3.80;1.33;;;16.70;99.90;;;;;;4986825;28;20056;-71
2022/07/05 02:56:07;;;;;;;2.35;0.90;;;16.70;99.90;;;;;;4985322;28;20053;-71
2022/07/05 02:58:34;;;;;;;2.90;1.00;;;16.70;99.90;;;;;;4985658;28;20054;-71
2022/07/05 03:01:02;;;;;;;2.05;1.13;;;16.60;99.90;;;;;;4984507;28;20046;-68
2022/07/05 03:03:33;;;;;;;2.03;1.10;;;16.50;99.90;;;;;;4981194;28;20050;-70
2022/07/05 03:06:00;;;;;;;2.22;0.82;;;16.60;99.90;;;;;;4973317;28;20983;-73
2022/07/05 03:08:29;;;;;;;2.08;1.13;;;16.50;99.90;;;;;;5005956;28;20069;-69
2022/07/05 03:10:57;;;;;;;1.08;0.77;;;16.50;99.90;;;;;;4986057;28;20065;-69
2022/07/05 03:13:25;;;;;;;3.22;0.88;;;16.50;99.90;;;;;;4983551;28;20660;-68
2022/07/05 03:15:52;;;;;;;1.60;0.90;;;16.40;99.90;;;;;;5004509;28;20057;-67
2022/07/05 03:18:21;;;;;;;1.60;0.93;;;16.40;99.90;;;;;;4984590;28;20097;-73
2022/07/05 03:20:49;;;;;;;2.08;1.60;;;16.40;99.90;;;;;;4985662;28;20901;-66
2022/07/05 03:23:18;;;;;;;1.77;0.82;;;16.40;99.90;;;;;;4983673;28;20081;-66
2022/07/05 03:25:51;;;;;;;2.72;1.48;;;16.30;99.90;;;;;;4984632;28;20426;-67
2022/07/05 03:28:18;;;;;;;2.85;0.90;;;16.40;99.90;;;;;;4985619;28;20141;-66
2022/07/05 03:30:46;;;;;;;4.30;1.00;;;16.40;99.90;;;;;;5003502;28;20053;-66
2022/07/05 03:33:13;;;;;;;4.68;0.82;;;16.40;99.90;;;;;;4985692;28;20050;-70
2022/07/05 03:35:43;;;;;;;4.40;1.10;;;16.40;99.90;;;;;;4989569;28;20081;-70
2022/07/05 03:38:13;;;;;;;4.15;1.20;;;16.50;99.90;;;;;;4989284;28;20056;-66
2022/07/05 03:40:40;;;;;;;1.92;1.45;;;16.60;99.90;;;;;;4989841;28;20053;-68
2022/07/05 03:43:07;;;;;;;2.75;1.05;;;16.60;99.90;;;;;;5005158;28;21397;-66
2022/07/05 03:45:36;;;;;;;5.05;1.13;;;16.70;99.90;;;;;;4991000;28;20057;-71
2022/07/05 03:48:05;;;;;;;3.30;0.95;;;16.60;99.90;;;;;;4989268;28;20069;-70
2022/07/05 03:50:52;;;;;;;1.38;1.02;;;16.60;99.90;;;;;;4990118;28;20046;-71
2022/07/05 03:53:20;;;;;;;3.25;1.38;;;16.50;99.90;;;;;;4986379;28;20085;-71
2022/07/05 03:55:47;;;;;;;1.58;1.02;;;16.40;99.90;;;;;;4989925;28;20408;-66
2022/07/05 03:58:14;;;;;;;4.03;1.42;;;16.40;99.90;;;;;;4988102;28;20053;-70
2022/07/05 04:00:41;;;;;;;2.83;0.80;;;16.40;99.90;;;;;;5006898;28;20361;-66
2022/07/05 04:03:12;;;;;;;1.42;1.33;;;16.50;99.90;;;;;;4987865;28;20471;-68
2022/07/05 04:05:41;;;;;;;3.75;1.25;;;16.40;99.90;;;;;;4989866;28;20074;-74
2022/07/05 04:08:09;;;;;;;3.42;1.42;;;16.40;99.90;;;;;;4988848;28;20060;-71
2022/07/05 04:10:41;;;;;;;2.50;1.08;;;16.40;99.90;;;;;;4988801;28;20368;-74
2022/07/05 04:13:08;;;;;;;2.22;1.58;;;16.40;99.90;;;;;;5003397;28;20050;-69
2022/07/05 04:15:35;;;;;;;1.67;0.90;;;16.40;99.90;;;;;;4991058;28;20353;-66
2022/07/05 04:18:04;;;;;;;4.00;1.27;;;16.50;99.90;;;;;;4988662;28;20077;-68
2022/07/05 04:20:35;;;;;;;1.63;0.93;;;16.50;99.90;;;;;;4988499;28;20050;-67
2022/07/05 04:23:04;;;;;;;1.70;0.80;;;16.40;99.90;;;;;;4986835;28;20111;-69
2022/07/05 04:25:31;;;;;;;3.30;1.98;;;16.40;99.90;;;;;;4989677;28;20570;-68
2022/07/05 04:28:05;;;;;;;4.80;2.15;;;16.30;99.90;;;;;;4987041;28;20104;-71
2022/07/05 04:30:34;;;;;;;2.15;0.85;;;16.30;99.90;;;;;;4988417;28;20808;-69
2022/07/05 04:33:02;;;;;;;1.48;0.68;;;16.30;99.90;;;;;;4988580;28;20141;-65
2022/07/05 04:35:30;;;;;;;4.28;1.20;;;16.30;99.90;;;;;;4990098;28;20068;-66
2022/07/05 04:37:57;;;;;;;1.83;1.17;;;16.20;99.90;;;;;;4988394;28;20060;-68
2022/07/05 04:40:25;;;;;;;4.28;1.00;;;16.20;99.90;;;;;;5006804;28;20648;-73
2022/07/05 04:42:52;;;;;;;2.38;1.00;;;16.20;99.90;;;;;;4986763;28;20741;-67
2022/07/05 04:45:19;;;;;;;2.55;0.98;;;16.20;99.90;;;;;;4985308;28;20050;-69
2022/07/05 04:47:48;;;;;;;1.83;0.95;;;16.20;99.90;;;;;;4986847;28;20050;-70
2022/07/05 04:50:15;;;;;;;1.95;0.88;;;16.20;99.90;;;;;;4988499;28;20054;-66
2022/07/05 04:52:42;;;;;;;1.10;0.73;;;16.20;99.90;;;;;;4987230;28;20062;-66
2022/07/05 04:55:09;;;;;;;1.38;0.90;;;16.20;99.90;;;;;;4988112;28;20080;-69
2022/07/05 04:57:41;;;;;;;1.35;1.35;;;16.30;99.90;;;;;;4988719;28;20387;-69
2022/07/05 05:00:13;;;;;;;1.30;0.90;;;16.30;99.90;;;;;;4989299;28;20094;-67
2022/07/05 05:02:41;;;;;;;1.02;0.80;;;16.30;99.90;;;;;;4987732;28;20077;-66
2022/07/05 05:05:08;;;;;;;3.97;1.10;;;16.30;99.90;;;;;;4987940;28;20569;-65
2022/07/05 05:07:37;;;;;;;1.35;1.00;;;16.30;99.90;;;;;;4989395;28;20057;-69
2022/07/05 05:10:06;;;;;;;1.25;0.80;;;16.30;99.90;;;;;;4988999;28;20539;-69
2022/07/05 05:12:33;;;;;;;1.92;1.17;;;16.40;99.90;;;;;;4989866;28;20077;-73
2022/07/05 05:15:00;;;;;;;1.00;0.98;;;16.30;99.90;;;;;;4989244;28;20152;-74
2022/07/05 05:17:38;;;;;;;4.47;0.95;;;16.30;99.90;;;;;;4986458;28;20081;-67
2022/07/05 05:20:09;;;;;;;3.80;1.10;;;16.30;99.90;;;;;;4989344;28;20168;-69
2022/07/05 05:22:36;;;;;;;3.50;1.65;;;16.30;99.90;;;;;;4988185;28;20049;-68
2022/07/05 05:25:03;;;;;;;3.58;1.20;;;16.30;99.90;;;;;;4986478;28;20157;-68
2022/07/05 05:27:30;;;;;;;3.42;1.25;;;16.40;99.90;;;;;;4988519;28;20073;-68
2022/07/05 05:29:58;;;;;;;0.82;0.82;;;16.40;99.90;;;;;;4988720;28;20054;-67
2022/07/05 05:32:25;;;;;;;3.15;1.15;;;16.40;99.90;;;;;;4989126;28;20141;-72
2022/07/05 05:34:52;;;;;;;1.45;1.08;;;16.40;99.90;;;;;;4989265;28;20471;-70
2022/07/05 05:37:19;;;;;;;3.58;1.25;;;16.40;99.90;;;;;;4986408;28;20062;-67
2022/07/05 05:39:45;;;;;;;2.22;0.93;;;16.30;99.90;;;;;;4988894;28;20133;-69
2022/07/05 05:42:13;;;;;;;2.47;1.05;;;16.40;99.90;;;;;;4987868;28;20180;-72
2022/07/05 05:44:40;;;;;;;2.58;1.20;;;16.40;99.90;;;;;;4989421;28;20324;-69
2022/07/05 05:47:07;;;;;;;1.30;1.15;;;16.40;99.90;;;;;;4986466;28;20132;-69
2022/07/05 05:49:39;;;;;;;4.35;1.23;;;16.40;99.90;;;;;;4989826;28;20124;-69
2022/07/05 05:52:06;;;;;;;1.38;0.95;;;16.40;99.90;;;;;;4987779;28;20688;-67
2022/07/05 05:54:33;;;;;;;13.25;1.50;;;16.40;99.90;;;;;;4988890;28;20130;-69
2022/07/05 05:56:59;;;;;;;3.58;1.75;;;16.40;99.90;;;;;;4986413;28;20676;-72
2022/07/05 05:59:26;;;;;;;4.00;1.50;;;16.40;99.90;;;;;;4986858;28;20133;-69
2022/07/05 06:01:53;;;;;;;2.80;0.90;;;16.50;99.90;;;;;;4988446;28;20077;-68
2022/07/05 06:04:20;;;;;;;2.90;0.75;;;16.50;99.90;;;;;;4988453;28;20654;-70
2022/07/05 06:06:47;;;;;;;2.08;1.13;;;16.60;99.90;;;;;;4986916;28;20244;-71
2022/07/05 06:09:14;;;;;;;3.03;1.00;;;16.60;99.90;;;;;;4986834;28;20062;-69
2022/07/05 06:11:41;;;;;;;3.38;0.93;;;16.60;99.90;;;;;;4987555;28;20128;-67
2022/07/05 06:14:08;;;;;;;1.35;1.10;;;16.50;99.90;;;;;;4987493;28;21459;-66
2022/07/05 06:16:35;;;;;;;3.78;1.00;;;16.60;99.90;;;;;;4988353;28;20058;-68
2022/07/05 06:19:02;;;;;;;2.92;0.98;;;16.60;99.90;;;;;;4986194;28;20114;-66
2022/07/05 06:21:29;;;;;;;2.20;1.00;;;16.50;99.90;;;;;;4987940;28;20062;-69
2022/07/05 06:23:56;;;;;;;2.42;1.20;;;16.50;99.90;;;;;;4987604;28;20128;-68
2022/07/05 06:26:23;;;;;;;4.07;1.00;;;16.60;99.90;;;;;;4987183;28;20058;-69
2022/07/05 06:28:50;;;;;;;2.20;0.90;;;16.70;99.90;;;;;;4987504;28;20054;-72
2022/07/05 06:31:17;;;;;;;1.45;0.90;;;16.70;99.90;;;;;;4986589;28;20085;-66
2022/07/05 06:33:44;;;;;;;3.20;1.15;;;16.70;99.90;;;;;;4987713;28;20050;-70
2022/07/05 06:36:11;;;;;;;3.55;1.13;;;16.80;99.90;;;;;;4987522;28;20131;-73
2022/07/05 06:38:38;;;;;;;1.30;1.17;;;16.80;99.90;;;;;;4987146;28;20472;-68
2022/07/05 06:41:05;;;;;;;3.70;1.67;;;16.80;99.90;;;;;;4985666;28;20061;-70
2022/07/05 06:43:32;;;;;;;9.10;0.88;;;16.90;99.90;;;;;;4986505;28;20140;-66
2022/07/05 06:46:05;;;;;;;1.60;0.82;;;16.90;99.90;;;;;;4986334;28;20072;-66
2022/07/05 06:48:32;;;;;;;1.77;0.88;;;17.00;99.90;;;;;;4987659;28;20184;-71
2022/07/05 06:50:59;;;;;;;5.55;1.20;;;17.00;99.90;;;;;;4987509;28;20144;-74
2022/07/05 06:53:26;;;;;;;1.40;0.90;;;16.90;99.90;;;;;;4985923;28;20057;-68
2022/07/05 06:55:53;;;;;;;5.32;3.10;;;16.90;99.90;;;;;;4987735;28;20480;-69
2022/07/05 06:58:23;;;;;;;5.35;1.13;;;17.00;99.90;;;;;;4986348;28;20054;-66
2022/07/05 07:00:50;;;;;;;4.38;1.05;;;17.10;99.90;;;;;;4987381;28;20136;-70
2022/07/05 07:03:38;;;;;;;6.43;1.08;;;17.20;99.90;;;;;;4985673;28;20054;-67
2022/07/05 07:06:25;;;;;;;2.58;1.17;;;17.20;99.90;;;;;;4987281;28;20050;-70
2022/07/05 07:11:36;;;;;;;1.92;1.13;;;17.20;99.90;;;;;;4984451;28;20137;-70
2022/07/05 07:14:03;;;;;;;2.55;1.30;;;17.20;99.90;;;;;;4987477;28;20126;-67
2022/07/05 07:16:30;;;;;;;1.63;0.88;;;17.30;99.90;;;;;;4987544;28;20061;-69
2022/07/05 07:18:57;;;;;;;6.07;2.85;;;17.30;99.90;;;;;;4988165;28;20080;-67
2022/07/05 07:21:42;;;;;;;6.85;1.25;;;17.30;99.90;;;;;;4985814;28;20074;-69
2022/07/05 07:24:10;;;;;;;0.98;0.80;;;17.30;99.90;;;;;;4987026;28;20141;-68
2022/07/05 07:29:23;;;;;;;4.00;1.70;;;17.40;99.90;;;;;;4985933;28;20153;-69
2022/07/05 07:31:50;;;;;;;5.68;1.85;;;17.50;99.90;;;;;;4986765;28;20058;-69
2022/07/05 07:34:17;;;;;;;2.17;1.30;;;17.50;99.90;;;;;;4987815;28;20184;-68
2022/07/05 07:36:44;;;;;;;1.38;1.20;;;17.60;99.90;;;;;;4987226;28;20853;-72
2022/07/05 07:39:11;;;;;;;2.53;0.90;;;17.50;99.90;;;;;;4985583;28;20050;-71
2022/07/05 07:41:38;;;;;;;1.15;1.05;;;17.50;99.90;;;;;;4986120;28;20060;-65
2022/07/05 07:44:05;;;;;;;2.90;1.48;;;17.40;99.90;;;;;;4987485;28;20066;-68
2022/07/05 07:46:32;;;;;;;4.13;2.58;;;17.40;99.90;;;;;;4986346;28;20650;-66
2022/07/05 07:48:59;;;;;;;7.50;1.67;;;17.40;99.90;;;;;;4987579;28;20157;-71
2022/07/05 07:51:27;;;;;;;5.63;1.23;;;17.50;99.90;;;;;;4984113;28;20057;-66
2022/07/05 07:53:54;;;;;;;5.88;1.02;;;17.60;99.90;;;;;;4986847;28;20132;-72
2022/07/05 07:56:37;;;;;;;1.48;0.98;;;17.60;99.90;;;;;;4986160;28;20115;-66
2022/07/05 07:59:04;;;;;;;1.58;1.23;;;17.80;99.90;;;;;;4984910;28;20141;-70
2022/07/05 08:01:31;;;;;;;5.15;1.98;;;17.80;99.90;;;;;;4985393;28;20129;-71
2022/07/05 08:03:58;;;;;;;5.43;2.03;;;17.80;99.90;;;;;;4987283;28;20147;-74
2022/07/05 08:06:26;;;;;;;2.72;1.10;;;17.70;99.90;;;;;;4986102;28;20054;-71
2022/07/05 08:08:53;;;;;;;1.42;1.33;;;17.70;99.90;;;;;;4986867;28;20046;-69
2022/07/05 08:11:20;;;;;;;2.38;1.10;;;17.80;99.90;;;;;;4984063;28;21891;-69
2022/07/05 08:13:47;;;;;;;4.63;1.15;;;17.80;99.90;;;;;;4986483;28;20123;-73
2022/07/05 08:16:15;;;;;;;3.03;1.05;;;17.70;99.90;;;;;;4986062;28;20049;-73
2022/07/05 08:21:30;;;;;;;3.85;1.65;;;17.80;99.90;;;;;;4987841;28;20046;-69
2022/07/05 08:24:03;;;;;;;3.95;1.10;;;17.90;99.90;;;;;;4990335;28;20105;-71
2022/07/05 08:26:30;;;;;;;2.75;1.65;;;17.90;99.90;;;;;;4988682;28;20081;-72
2022/07/05 08:28:59;;;;;;;3.25;1.65;;;17.80;99.90;;;;;;4990295;28;20050;-69
2022/07/05 08:31:38;;;;;;;2.60;1.33;;;17.80;99.90;;;;;;4988425;28;20050;-71
2022/07/05 08:34:05;;;;;;;2.30;1.38;;;17.90;99.90;;;;;;4990325;28;20050;-70
2022/07/05 08:36:32;;;;;;;1.45;1.17;;;18.00;99.90;;;;;;4990422;28;20105;-70
2022/07/05 08:38:59;;;;;;;2.05;1.10;;;18.00;99.90;;;;;;4990322;28;20089;-72
2022/07/05 08:41:28;;;;;;;3.20;1.40;;;18.10;99.90;;;;;;4988188;28;20165;-66
2022/07/05 08:43:57;;;;;;;7.93;2.38;;;18.00;99.90;;;;;;4990132;28;20126;-69
2022/07/05 08:46:25;;;;;;;2.92;1.27;;;18.20;99.90;;;;;;4989626;28;20209;-72
2022/07/05 08:48:55;;;;;;;2.33;1.00;;;18.30;99.90;;;;;;4990203;28;20054;-65
2022/07/05 08:51:22;;;;;;;2.95;1.00;;;18.30;99.90;;;;;;4988259;28;20070;-67
2022/07/05 08:53:53;;;;;;;4.55;0.85;;;18.40;99.90;;;;;;4989918;28;20046;-70
2022/07/05 08:56:20;;;;;;;3.10;0.82;;;18.40;99.90;;;;;;4988808;28;20053;-72
2022/07/05 08:59:05;;;;;;;5.22;1.05;;;18.40;99.90;;;;;;4987794;28;20106;-67
2022/07/05 09:01:34;;;;;;;3.45;0.90;;;18.40;99.90;;;;;;4989808;28;20158;-66
2022/07/05 09:04:05;;;;;;;3.55;0.73;;;18.60;99.90;;;;;;4990360;28;20084;-70
2022/07/05 09:06:36;;;;;;;1.38;0.73;;;18.70;99.90;;;;;;4988369;28;20061;-67
2022/07/05 09:09:04;;;;;;;3.22;1.17;;;18.70;99.90;;;;;;4987823;28;21406;-66
2022/07/05 09:11:38;;;;;;;1.70;0.98;;;18.70;99.90;;;;;;4988259;28;20152;-71
2022/07/05 09:14:17;;;;;;;2.40;1.08;;;18.70;99.90;;;;;;4988623;28;21016;-68
2022/07/05 09:16:55;;;;;;;3.58;2.05;;;18.90;99.90;;;;;;4987119;28;20092;-74
2022/07/05 09:19:22;;;;;;;1.40;1.00;;;19.00;99.90;;;;;;4986776;28;20135;-68
2022/07/05 09:22:03;;;;;;;1.88;1.40;;;19.10;99.90;;;;;;4988584;28;20097;-65
2022/07/05 09:24:33;;;;;;;2.53;0.80;;;19.00;99.90;;;;;;4987933;28;20064;-68
2022/07/05 09:27:04;;;;;;;0.80;0.80;;;19.10;99.90;;;;;;4987593;28;20102;-69
2022/07/05 09:29:32;;;;;;;3.42;0.93;;;19.30;99.90;;;;;;4987113;28;20143;-70
2022/07/05 09:32:25;;;;;;;6.97;1.00;;;19.30;99.90;;;;;;4988836;28;20610;-69
2022/07/05 09:34:51;;;;;;;2.05;0.90;;;19.30;99.90;;;;;;4989379;28;20688;-66
2022/07/05 09:37:18;;;;;;;4.28;1.08;;;19.40;99.90;;;;;;4986443;28;20508;-67
2022/07/05 09:39:45;;;;;;;1.60;0.90;;;19.30;99.90;;;;;;4988905;28;20049;-72
2022/07/05 09:42:23;;;;;;;2.97;0.98;;;19.30;99.90;;;;;;4987309;28;20050;-66
2022/07/05 09:44:55;;;;;;;1.88;1.27;;;19.10;99.90;;;;;;4989149;28;20061;-71
2022/07/05 09:47:24;;;;;;;5.32;1.30;;;19.20;99.90;;;;;;4986539;28;20054;-72
2022/07/05 09:49:53;;;;;;;1.75;1.42;;;19.40;99.90;;;;;;4988924;28;20064;-70
2022/07/05 09:52:40;;;;;;;2.35;0.88;;;19.60;99.90;;;;;;4988462;28;20543;-73
2022/07/05 09:55:11;;;;;;;2.10;1.02;;;19.70;99.90;;;;;;4986795;28;20060;-66
2022/07/05 09:57:40;;;;;;;1.83;1.40;;;19.80;99.90;;;;;;4987319;28;20049;-67
2022/07/05 10:00:11;;;;;;;2.17;1.13;;;19.90;99.90;;;;;;4989145;28;20108;-69
2022/07/05 10:02:39;;;;;;;3.45;0.98;;;19.70;99.90;;;;;;4988693;28;20097;-72
2022/07/05 10:05:23;;;;;;;3.03;1.02;;;19.50;99.90;;;;;;4986679;28;20582;-71
2022/07/05 10:07:51;;;;;;;1.75;0.68;;;19.50;99.90;;;;;;4988881;28;20626;-70
2022/07/05 10:10:23;;;;;;;2.90;1.05;;;19.30;99.90;;;;;;4988657;28;20111;-67
2022/07/05 10:12:55;;;;;;;3.42;1.30;;;19.50;99.90;;;;;;4987349;28;20595;-65
2022/07/05 10:15:27;;;;;;;5.82;1.13;;;19.50;99.90;;;;;;4986000;28;20477;-71
2022/07/05 10:18:05;;;;;;;1.52;1.20;;;19.70;99.90;;;;;;4987318;28;20138;-71
2022/07/05 10:20:40;;;;;;;1.40;0.55;;;19.90;99.90;;;;;;4990833;28;20049;-70
2022/07/05 10:23:12;;;;;;;1.67;1.35;;;19.80;99.90;;;;;;4986322;28;20050;-74
2022/07/05 10:25:41;;;;;;;1.80;1.00;;;20.00;99.90;;;;;;4988014;28;20183;-67
2022/07/05 10:28:08;;;;;;;4.80;1.70;;;20.00;99.90;;;;;;4978592;28;20046;-72
2022/07/05 10:30:36;;;;;;;2.33;0.90;;;19.90;99.90;;;;;;4988984;28;20153;-70
2022/07/05 10:33:06;;;;;;;3.90;0.80;;;20.00;99.90;;;;;;4985969;28;20054;-74
2022/07/05 10:35:34;;;;;;;1.37;0.87;;;20.00;99.90;;;;;;4991943;28;21032;-66
2022/07/05 10:38:03;;;;;;;3.58;1.48;;;19.90;99.90;;;;;;4985663;28;20573;-73
2022/07/05 10:40:32;;;;;;;2.72;1.27;;;19.70;99.90;;;;;;4988740;28;20122;-76
2022/07/05 10:43:01;;;;;;;2.33;1.10;;;19.80;99.90;;;;;;4987262;28;20073;-76
2022/07/05 10:45:34;;;;;;;4.03;1.42;;;19.80;99.90;;;;;;4986139;28;20170;-68
2022/07/05 10:48:09;;;;;;;3.25;1.10;;;19.50;99.90;;;;;;4989208;28;20133;-69
2022/07/05 10:50:43;;;;;;;2.42;1.23;;;19.40;99.90;;;;;;4987489;28;20136;-66
2022/07/05 10:53:10;;;;;;;1.92;0.95;;;19.40;99.90;;;;;;4985508;28;20054;-67
2022/07/05 10:55:47;;;;;;;2.88;1.13;;;19.50;99.90;;;;;;4988185;28;20133;-74
2022/07/05 10:58:30;;;;;;;3.85;1.60;;;19.50;99.90;;;;;;4985317;28;20054;-68
2022/07/05 11:01:12;;;;;;;2.28;1.00;;;19.90;99.90;;;;;;4987369;28;20511;-75
2022/07/05 11:03:52;;;;;;;1.63;1.30;;;20.10;99.90;;;;;;4986667;28;20153;-69
2022/07/05 11:06:26;;;;;;;2.47;0.90;;;20.10;99.90;;;;;;4987553;28;20065;-70
2022/07/05 11:08:56;;;;;;;4.38;1.13;;;20.10;99.90;;;;;;4988160;28;20168;-66
2022/07/05 11:11:31;;;;;;;2.38;0.70;;;20.00;99.90;;;;;;4984051;28;20078;-70
2022/07/05 11:14:25;;;;;;;1.60;1.10;;;20.30;99.90;;;;;;4987366;28;20506;-70
2022/07/05 11:17:15;;;;;;;2.38;1.35;;;20.40;99.90;;;;;;4986597;28;20085;-68
2022/07/05 11:20:06;;;;;;;2.35;0.82;;;20.40;99.90;;;;;;4985852;28;20061;-73
2022/07/05 11:22:38;;;;;;;7.00;2.03;;;20.50;99.90;;;;;;4987495;28;20056;-72
2022/07/05 11:25:08;;;;;;;4.43;1.20;;;20.70;99.90;;;;;;4986162;28;20054;-70
2022/07/05 11:27:35;;;;;;;1.23;0.80;;;20.70;99.90;;;;;;4986083;28;20498;-70
2022/07/05 11:30:03;;;;;;;1.65;0.77;;;20.60;99.90;;;;;;4987139;28;20105;-69
2022/07/05 11:32:29;;;;;;;2.45;0.90;;;20.60;99.90;;;;;;4987011;28;20061;-69
2022/07/05 11:35:16;;;;;;;1.15;1.05;;;20.20;99.90;;;;;;4987460;28;20050;-69
2022/07/05 11:38:01;;;;;;;2.33;1.15;;;20.10;99.90;;;;;;4985719;28;20074;-72
2022/07/05 11:40:49;;;;;;;5.35;1.40;;;20.00;99.90;;;;;;4987276;28;20115;-69
2022/07/05 11:43:28;;;;;;;2.08;1.23;;;20.20;99.90;;;;;;4983425;28;20049;-66
2022/07/05 11:45:59;;;;;;;1.35;0.70;;;20.40;99.90;;;;;;4987056;28;20520;-69
2022/07/05 11:48:27;;;;;;;1.00;0.90;;;20.60;99.90;;;;;;4986736;28;20054;-69
2022/07/05 11:50:55;;;;;;;0.65;0.65;;;20.60;99.90;;;;;;4985001;28;20064;-68
2022/07/05 11:53:30;;;;;;;2.97;0.73;;;20.60;99.90;;;;;;4985417;28;20116;-67
2022/07/05 11:56:17;;;;;;;4.35;0.95;;;20.70;99.90;;;;;;4988606;28;20052;-69
2022/07/05 11:58:44;;;;;;;5.15;1.27;;;20.70;99.90;;;;;;4991168;28;20232;-72
2022/07/05 12:01:11;;;;;;;7.20;2.22;;;20.60;99.90;;;;;;4988357;28;20137;-70
2022/07/05 12:03:41;;;;;;;3.75;1.40;;;20.80;99.90;;;;;;4990891;28;20125;-69
2022/07/05 12:06:12;;;;;;;4.50;1.13;;;20.80;99.90;;;;;;4989450;28;20062;-68
2022/07/05 12:08:39;;;;;;;4.38;1.00;;;21.00;99.90;;;;;;4991091;28;20054;-71
2022/07/05 12:13:55;;;;;;;1.58;1.15;;;21.20;99.90;;;;;;4990482;28;20142;-68
2022/07/05 12:16:23;;;;;;;1.42;0.55;;;21.20;99.90;;;;;;4989929;28;20105;-70
2022/07/05 12:18:55;;;;;;;1.85;0.88;;;21.10;99.90;;;;;;4990063;28;20484;-71
2022/07/05 12:21:23;;;;;;;2.25;0.80;;;20.90;99.90;;;;;;4987859;28;20050;-67
2022/07/05 12:23:51;;;;;;;2.42;0.80;;;20.80;99.90;;;;;;4990497;28;20058;-69
2022/07/05 12:26:19;;;;;;;9.90;1.65;;;20.70;99.90;;;;;;4988560;28;20073;-72
2022/07/05 12:28:47;;;;;;;4.20;1.27;;;20.70;99.90;;;;;;4990085;28;20500;-71
2022/07/05 12:31:19;;;;;;;3.28;1.77;;;20.70;99.90;;;;;;4988594;28;20510;-71
2022/07/05 12:33:46;;;;;;;4.63;1.08;;;20.80;99.90;;;;;;4989986;28;20097;-68
2022/07/05 12:36:19;;;;;;;1.15;0.88;;;20.90;99.90;;;;;;4990058;28;20125;-69
2022/07/05 12:38:46;;;;;;;1.58;0.77;;;20.80;99.90;;;;;;4989736;28;20547;-69
2022/07/05 12:41:22;;;;;;;1.65;0.52;;;20.60;99.90;;;;;;4987880;28;20073;-67
2022/07/05 12:43:52;;;;;;;2.38;0.70;;;20.60;99.90;;;;;;4990100;28;20109;-70
2022/07/05 12:46:20;;;;;;;10.20;1.60;;;20.90;99.90;;;;;;4989872;28;20069;-72
2022/07/05 12:48:57;;;;;;;3.67;0.82;;;21.00;99.90;;;;;;4990250;28;20188;-69
2022/07/05 12:51:36;;;;;;;1.15;0.40;;;21.10;99.90;;;;;;4987192;28;20057;-69
2022/07/05 13:00:10;;;;;;;2.28;0.63;;;21.20;99.90;;;;;;4988027;28;20561;-68
2022/07/05 13:02:42;;;;;;;3.20;0.80;;;21.00;99.90;;;;;;4989262;28;20054;-67
2022/07/05 13:05:20;;;;;;;0.93;0.40;;;20.90;99.90;;;;;;4987614;28;20153;-69
2022/07/05 13:07:54;;;;;;;3.00;0.68;;;21.10;99.90;;;;;;4989202;28;20129;-72
2022/07/05 13:10:28;;;;;;;3.83;0.90;;;21.20;99.90;;;;;;4988977;28;20497;-68
2022/07/05 13:12:55;;;;;;;2.70;0.47;;;21.30;99.90;;;;;;4988555;28;20100;-68
2022/07/05 13:15:22;;;;;;;1.77;0.70;;;21.40;99.90;;;;;;4987680;28;20073;-67
2022/07/05 13:17:50;;;;;;;2.35;0.52;;;21.50;99.90;;;;;;4988217;28;20681;-72
2022/07/05 13:20:20;;;;;;;2.13;0.73;;;21.60;99.90;;;;;;4988917;28;20484;-68